createdAt,value
2018-03-28T00:00:08.260Z,83.20
2018-03-28T00:01:08.438Z,83.97
2018-03-28T00:02:08.621Z,83.78
2018-03-28T00:03:08.793Z,84.63
2018-03-28T00:04:08.974Z,84.53
2018-03-28T00:05:09.150Z,84.63
2018-03-28T00:06:09.332Z,84.16
2018-03-28T00:07:09.516Z,83.78
2018-03-28T00:08:09.694Z,84.06
2018-03-28T00:09:09.872Z,83.97
2018-03-28T00:10:10.052Z,83.39
2018-03-28T00:11:10.226Z,83.20
2018-03-28T00:12:10.403Z,82.45
2018-03-28T00:13:10.577Z,82.73
2018-03-28T00:14:10.756Z,82.49
2018-03-28T00:15:10.940Z,82.68
2018-03-28T00:16:11.123Z,82.29
2018-03-28T00:17:11.304Z,81.82
2018-03-28T00:18:11.478Z,82.20
2018-03-28T00:19:11.661Z,82.39
2018-03-28T00:20:11.836Z,81.82
2018-03-28T00:21:12.009Z,81.16
2018-03-28T00:22:12.187Z,81.54
2018-03-28T00:23:12.363Z,81.92
2018-03-28T00:24:12.551Z,81.63
2018-03-28T00:25:12.726Z,82.10
2018-03-28T00:26:12.907Z,82.20
2018-03-28T00:27:13.086Z,81.73
2018-03-28T00:28:13.265Z,82.20
2018-03-28T00:29:13.447Z,81.73
2018-03-28T00:30:13.633Z,81.54
2018-03-28T00:31:13.811Z,81.54
2018-03-28T00:32:13.990Z,81.73
2018-03-28T00:33:14.170Z,81.73
2018-03-28T00:34:14.345Z,81.63
2018-03-28T00:35:14.524Z,82.87
2018-03-28T00:36:14.705Z,82.58
2018-03-28T00:37:14.879Z,82.87
2018-03-28T00:38:15.050Z,82.68
2018-03-28T00:39:15.225Z,82.54
2018-03-28T00:40:15.408Z,83.20
2018-03-28T00:41:15.587Z,83.01
2018-03-28T00:42:15.774Z,83.39
2018-03-28T00:43:16.384Z,83.49
2018-03-28T00:44:16.496Z,84.16
2018-03-28T00:45:16.761Z,83.68
2018-03-28T00:46:16.921Z,84.25
2018-03-28T00:47:16.931Z,84.44
2018-03-28T00:48:17.174Z,84.53
2018-03-28T00:49:21.508Z,84.25
2018-03-28T00:50:20.551Z,83.97
2018-03-28T00:51:20.638Z,83.97
2018-03-28T00:52:17.750Z,84.16
2018-03-28T00:53:17.947Z,84.06
2018-03-28T00:54:18.202Z,84.72
2018-03-28T00:55:18.296Z,84.72
2018-03-28T00:56:18.538Z,85.20
2018-03-28T00:57:18.652Z,84.91
2018-03-28T00:58:18.783Z,84.44
2018-03-28T00:59:18.968Z,85.53
2018-03-28T01:00:19.115Z,84.58
2018-03-28T01:01:19.757Z,84.77
2018-03-28T01:02:19.452Z,84.48
2018-03-28T01:03:19.665Z,84.01
2018-03-28T01:04:25.943Z,83.72
2018-03-28T01:05:19.881Z,83.53
2018-03-28T01:06:20.307Z,83.34
2018-03-28T01:07:20.383Z,83.44
2018-03-28T01:08:20.519Z,83.25
2018-03-28T01:09:20.528Z,84.10
2018-03-28T01:10:20.709Z,84.20
2018-03-28T01:11:20.741Z,83.91
2018-03-28T01:12:20.891Z,84.10
2018-03-28T01:13:20.979Z,83.82
2018-03-28T01:14:21.295Z,84.10
2018-03-28T01:15:21.678Z,83.34
2018-03-28T01:16:21.856Z,82.96
2018-03-28T01:17:21.917Z,83.25
2018-03-28T01:18:22.252Z,83.44
2018-03-28T01:19:22.530Z,84.10
2018-03-28T01:20:22.416Z,83.82
2018-03-28T01:21:22.713Z,84.01
2018-03-28T01:22:22.671Z,83.62
2018-03-28T01:23:22.894Z,83.82
2018-03-28T01:24:23.244Z,84.10
2018-03-28T01:25:23.397Z,83.82
2018-03-28T01:26:23.492Z,83.91
2018-03-28T01:27:23.551Z,84.10
2018-03-28T01:28:23.698Z,83.34
2018-03-28T01:29:23.939Z,82.96
2018-03-28T01:30:24.169Z,82.68
2018-03-28T01:31:24.161Z,82.96
2018-03-28T01:32:24.327Z,83.15
2018-03-28T01:33:24.453Z,82.87
2018-03-28T01:34:24.597Z,83.15
2018-03-28T01:35:24.975Z,82.77
2018-03-28T01:36:25.093Z,83.06
2018-03-28T01:37:25.210Z,83.34
2018-03-28T01:38:25.374Z,82.87
2018-03-28T01:39:25.605Z,83.15
2018-03-28T01:40:25.685Z,83.34
2018-03-28T01:41:25.924Z,83.25
2018-03-28T01:42:29.483Z,83.25
2018-03-28T01:43:26.808Z,82.96
2018-03-28T01:44:26.322Z,83.06
2018-03-28T01:45:26.593Z,82.77
2018-03-28T01:46:26.680Z,82.49
2018-03-28T01:47:29.822Z,82.77
2018-03-28T01:48:27.319Z,82.96
2018-03-28T01:49:27.203Z,83.25
2018-03-28T01:50:30.974Z,83.15
2018-03-28T01:51:27.613Z,83.15
2018-03-28T01:52:27.728Z,83.15
2018-03-28T01:53:27.845Z,83.72
2018-03-28T01:54:27.989Z,83.15
2018-03-28T01:55:27.907Z,82.68
2018-03-28T01:56:28.226Z,82.96
2018-03-28T01:57:28.266Z,82.87
2018-03-28T01:58:28.410Z,83.72
2018-03-28T01:59:28.348Z,83.34
2018-03-28T02:00:28.523Z,82.77
2018-03-28T02:01:28.698Z,82.77
2018-03-28T02:02:28.871Z,82.68
2018-03-28T02:03:29.053Z,82.77
2018-03-28T02:04:29.238Z,82.58
2018-03-28T02:05:29.417Z,83.15
2018-03-28T02:06:29.591Z,82.58
2018-03-28T02:07:29.772Z,82.49
2018-03-28T02:08:29.947Z,82.96
2018-03-28T02:09:30.126Z,83.44
2018-03-28T02:10:30.303Z,82.96
2018-03-28T02:11:30.478Z,83.25
2018-03-28T02:12:30.660Z,82.96
2018-03-28T02:13:30.837Z,83.44
2018-03-28T02:14:31.013Z,82.58
2018-03-28T02:15:31.197Z,82.68
2018-03-28T02:16:31.366Z,83.25
2018-03-28T02:17:31.547Z,82.58
2018-03-28T02:18:31.721Z,82.87
2018-03-28T02:19:31.902Z,83.25
2018-03-28T02:20:32.077Z,82.29
2018-03-28T02:21:32.247Z,82.10
2018-03-28T02:22:32.428Z,83.06
2018-03-28T02:23:32.605Z,83.06
2018-03-28T02:24:32.782Z,82.87
2018-03-28T02:25:32.957Z,83.72
2018-03-28T02:26:33.130Z,83.53
2018-03-28T02:27:33.310Z,83.44
2018-03-28T02:28:33.484Z,83.25
2018-03-28T02:29:33.664Z,83.25
2018-03-28T02:30:33.841Z,82.87
2018-03-28T02:31:34.015Z,83.34
2018-03-28T02:32:34.224Z,83.25
2018-03-28T02:33:34.399Z,83.25
2018-03-28T02:34:34.576Z,83.25
2018-03-28T02:35:34.749Z,83.06
2018-03-28T02:36:34.935Z,83.15
2018-03-28T02:37:35.100Z,83.15
2018-03-28T02:38:35.279Z,83.34
2018-03-28T02:39:35.458Z,83.15
2018-03-28T02:40:35.642Z,83.15
2018-03-28T02:41:35.872Z,82.96
2018-03-28T02:42:36.055Z,83.25
2018-03-28T02:43:36.118Z,83.15
2018-03-28T02:44:36.290Z,83.53
2018-03-28T02:45:36.460Z,83.15
2018-03-28T02:46:36.650Z,83.82
2018-03-28T02:47:36.829Z,84.01
2018-03-28T02:48:37.004Z,83.72
2018-03-28T02:49:37.190Z,84.20
2018-03-28T02:50:37.373Z,83.72
2018-03-28T02:51:37.545Z,84.20
2018-03-28T02:52:37.716Z,83.53
2018-03-28T02:53:37.896Z,83.15
2018-03-28T02:54:38.075Z,83.91
2018-03-28T02:55:38.257Z,83.72
2018-03-28T02:56:38.434Z,83.82
2018-03-28T02:57:38.615Z,84.10
2018-03-28T02:58:38.796Z,83.72
2018-03-28T02:59:38.983Z,83.82
2018-03-28T03:00:39.159Z,84.10
2018-03-28T03:01:39.332Z,83.72
2018-03-28T03:02:39.508Z,84.01
2018-03-28T03:03:39.685Z,83.62
2018-03-28T03:04:39.861Z,84.01
2018-03-28T03:05:40.033Z,83.82
2018-03-28T03:06:40.205Z,84.10
2018-03-28T03:07:40.374Z,84.10
2018-03-28T03:08:40.556Z,84.48
2018-03-28T03:09:40.736Z,84.58
2018-03-28T03:10:40.915Z,83.91
2018-03-28T03:11:41.091Z,83.91
2018-03-28T03:12:41.271Z,84.77
2018-03-28T03:13:41.505Z,85.11
2018-03-28T03:14:41.632Z,85.11
2018-03-28T03:15:41.807Z,85.01
2018-03-28T03:16:41.990Z,85.20
2018-03-28T03:17:42.165Z,85.30
2018-03-28T03:18:42.341Z,85.39
2018-03-28T03:19:42.518Z,85.34
2018-03-28T03:20:42.698Z,85.34
2018-03-28T03:21:42.870Z,84.95
2018-03-28T03:22:43.050Z,85.62
2018-03-28T03:23:43.221Z,85.43
2018-03-28T03:24:43.399Z,85.34
2018-03-28T03:25:43.577Z,85.05
2018-03-28T03:26:43.780Z,85.62
2018-03-28T03:27:43.933Z,85.24
2018-03-28T03:28:44.117Z,85.62
2018-03-28T03:29:44.295Z,85.34
2018-03-28T03:30:44.482Z,85.15
2018-03-28T03:31:44.653Z,85.34
2018-03-28T03:32:44.825Z,85.24
2018-03-28T03:33:45.002Z,85.43
2018-03-28T03:34:45.183Z,85.24
2018-03-28T03:35:45.363Z,84.86
2018-03-28T03:36:45.554Z,84.95
2018-03-28T03:37:45.736Z,85.34
2018-03-28T03:38:45.916Z,85.53
2018-03-28T03:39:46.089Z,85.43
2018-03-28T03:40:46.267Z,85.43
2018-03-28T03:41:46.450Z,85.24
2018-03-28T03:42:46.622Z,85.24
2018-03-28T03:43:46.800Z,85.24
2018-03-28T03:44:46.979Z,85.34
2018-03-28T03:45:47.157Z,85.05
2018-03-28T03:46:47.341Z,85.34
2018-03-28T03:47:47.513Z,85.15
2018-03-28T03:48:47.691Z,85.62
2018-03-28T03:49:47.871Z,84.95
2018-03-28T03:50:48.044Z,85.05
2018-03-28T03:51:48.218Z,84.86
2018-03-28T03:52:48.400Z,85.15
2018-03-28T03:53:48.581Z,84.95
2018-03-28T03:54:48.752Z,85.58
2018-03-28T03:55:48.929Z,86.15
2018-03-28T03:56:49.106Z,86.86
2018-03-28T03:57:49.279Z,86.86
2018-03-28T03:58:49.504Z,86.00
2018-03-28T03:59:49.635Z,85.91
2018-03-28T04:00:49.811Z,86.00
2018-03-28T04:01:49.993Z,85.34
2018-03-28T04:02:50.177Z,85.43
2018-03-28T04:03:50.350Z,85.34
2018-03-28T04:04:50.524Z,85.05
2018-03-28T04:05:50.712Z,84.95
2018-03-28T04:06:50.884Z,85.34
2018-03-28T04:07:51.097Z,84.95
2018-03-28T04:08:51.274Z,84.77
2018-03-28T04:09:51.499Z,85.05
2018-03-28T04:10:51.554Z,85.43
2018-03-28T04:11:51.730Z,85.15
2018-03-28T04:12:51.908Z,85.15
2018-03-28T04:13:52.095Z,85.43
2018-03-28T04:14:52.269Z,85.05
2018-03-28T04:15:52.446Z,85.24
2018-03-28T04:16:52.631Z,85.53
2018-03-28T04:17:52.809Z,85.34
2018-03-28T04:18:52.980Z,84.95
2018-03-28T04:19:53.156Z,85.15
2018-03-28T04:20:53.340Z,85.43
2018-03-28T04:21:53.514Z,85.24
2018-03-28T04:22:53.693Z,85.24
2018-03-28T04:23:53.876Z,85.53
2018-03-28T04:24:54.052Z,86.10
2018-03-28T04:25:54.221Z,85.91
2018-03-28T04:26:54.396Z,85.81
2018-03-28T04:27:54.577Z,86.19
2018-03-28T04:28:54.758Z,85.34
2018-03-28T04:29:54.925Z,85.15
2018-03-28T04:30:55.149Z,85.34
2018-03-28T04:31:55.277Z,85.34
2018-03-28T04:32:55.453Z,85.53
2018-03-28T04:33:55.629Z,85.91
2018-03-28T04:34:55.810Z,85.91
2018-03-28T04:35:55.985Z,86.00
2018-03-28T04:36:56.163Z,85.91
2018-03-28T04:37:56.341Z,86.19
2018-03-28T04:38:56.518Z,85.91
2018-03-28T04:39:59.941Z,85.53
2018-03-28T04:41:00.608Z,86.19
2018-03-28T04:42:01.783Z,85.43
2018-03-28T04:43:01.709Z,85.53
2018-03-28T04:44:01.197Z,85.24
2018-03-28T04:45:02.121Z,85.53
2018-03-28T04:45:59.839Z,85.24
2018-03-28T04:47:01.032Z,85.05
2018-03-28T04:48:00.086Z,84.95
2018-03-28T04:49:00.345Z,85.53
2018-03-28T04:50:01.044Z,85.62
2018-03-28T04:51:02.061Z,86.29
2018-03-28T04:52:00.728Z,85.62
2018-03-28T04:53:01.029Z,86.19
2018-03-28T04:54:00.935Z,86.57
2018-03-28T04:55:02.606Z,86.72
2018-03-28T04:56:01.546Z,86.82
2018-03-28T04:57:00.238Z,87.67
2018-03-28T04:58:00.486Z,87.57
2018-03-28T04:59:01.533Z,88.24
2018-03-28T05:00:02.597Z,88.15
2018-03-28T05:01:02.714Z,88.53
2018-03-28T05:02:02.151Z,88.15
2018-03-28T05:03:01.448Z,88.81
2018-03-28T05:04:02.291Z,88.71
2018-03-28T05:05:03.595Z,89.19
2018-03-28T05:06:02.919Z,89.28
2018-03-28T05:07:03.549Z,89.09
2018-03-28T05:08:02.864Z,89.76
2018-03-28T05:09:03.243Z,89.00
2018-03-28T05:10:02.881Z,89.28
2018-03-28T05:11:04.320Z,88.34
2018-03-28T05:12:03.843Z,88.67
2018-03-28T05:13:04.692Z,88.57
2018-03-28T05:14:03.350Z,88.19
2018-03-28T05:15:04.607Z,88.28
2018-03-28T05:16:03.520Z,88.47
2018-03-28T05:17:04.370Z,87.81
2018-03-28T05:18:04.422Z,87.52
2018-03-28T05:19:05.001Z,88.28
2018-03-28T05:20:05.171Z,88.28
2018-03-28T05:21:05.089Z,88.09
2018-03-28T05:22:04.878Z,87.81
2018-03-28T05:23:04.863Z,87.71
2018-03-28T05:24:04.546Z,87.52
2018-03-28T05:25:05.668Z,87.34
2018-03-28T05:26:05.975Z,86.47
2018-03-28T05:27:05.444Z,86.67
2018-03-28T05:28:05.583Z,86.67
2018-03-28T05:29:06.401Z,87.05
2018-03-28T05:30:06.787Z,87.14
2018-03-28T05:31:07.394Z,87.43
2018-03-28T05:32:05.579Z,87.24
2018-03-28T05:33:07.074Z,87.43
2018-03-28T05:34:06.392Z,87.05
2018-03-28T05:35:06.491Z,86.86
2018-03-28T05:36:07.188Z,87.24
2018-03-28T05:37:06.521Z,86.57
2018-03-28T05:38:06.399Z,86.86
2018-03-28T05:39:06.023Z,86.67
2018-03-28T05:40:06.207Z,86.10
2018-03-28T05:41:06.383Z,86.00
2018-03-28T05:42:06.575Z,86.00
2018-03-28T05:43:06.762Z,85.66
2018-03-28T05:44:06.940Z,85.38
2018-03-28T05:45:07.113Z,86.19
2018-03-28T05:46:07.301Z,85.81
2018-03-28T05:47:07.478Z,85.91
2018-03-28T05:48:07.668Z,86.00
2018-03-28T05:49:07.853Z,85.66
2018-03-28T05:50:08.067Z,86.14
2018-03-28T05:51:08.247Z,85.86
2018-03-28T05:52:08.444Z,86.05
2018-03-28T05:53:08.621Z,85.95
2018-03-28T05:54:08.800Z,85.86
2018-03-28T05:55:09.005Z,85.95
2018-03-28T05:56:09.164Z,86.14
2018-03-28T05:57:09.338Z,86.24
2018-03-28T05:58:09.510Z,85.76
2018-03-28T05:59:09.703Z,86.24
2018-03-28T06:00:09.872Z,86.33
2018-03-28T06:01:10.065Z,86.24
2018-03-28T06:02:10.238Z,85.47
2018-03-28T06:03:10.416Z,85.86
2018-03-28T06:04:10.612Z,85.47
2018-03-28T06:05:10.796Z,85.38
2018-03-28T06:06:10.980Z,85.28
2018-03-28T06:07:11.151Z,85.47
2018-03-28T06:08:11.339Z,85.57
2018-03-28T06:09:11.517Z,85.10
2018-03-28T06:10:11.693Z,85.28
2018-03-28T06:11:11.889Z,85.38
2018-03-28T06:12:12.066Z,85.57
2018-03-28T06:13:12.254Z,85.19
2018-03-28T06:14:12.427Z,85.47
2018-03-28T06:15:12.612Z,85.66
2018-03-28T06:16:12.791Z,85.38
2018-03-28T06:17:12.966Z,85.19
2018-03-28T06:18:13.143Z,85.47
2018-03-28T06:19:13.312Z,85.38
2018-03-28T06:20:13.536Z,85.66
2018-03-28T06:21:13.721Z,86.43
2018-03-28T06:22:13.893Z,85.76
2018-03-28T06:23:14.073Z,86.05
2018-03-28T06:24:14.315Z,86.14
2018-03-28T06:25:14.449Z,85.76
2018-03-28T06:26:14.626Z,85.47
2018-03-28T06:27:14.815Z,85.10
2018-03-28T06:28:15.000Z,85.28
2018-03-28T06:29:15.175Z,85.00
2018-03-28T06:30:15.351Z,85.28
2018-03-28T06:31:15.528Z,85.86
2018-03-28T06:32:15.698Z,86.43
2018-03-28T06:33:15.910Z,86.05
2018-03-28T06:34:16.092Z,85.47
2018-03-28T06:35:16.272Z,85.47
2018-03-28T06:36:16.462Z,85.38
2018-03-28T06:37:16.654Z,85.95
2018-03-28T06:38:16.831Z,85.57
2018-03-28T06:39:17.034Z,85.95
2018-03-28T06:40:19.505Z,85.57
2018-03-28T06:41:21.102Z,85.66
2018-03-28T06:42:19.559Z,85.10
2018-03-28T06:43:18.610Z,85.76
2018-03-28T06:44:21.674Z,85.38
2018-03-28T06:45:22.002Z,85.28
2018-03-28T06:46:19.753Z,85.57
2018-03-28T06:47:20.634Z,86.24
2018-03-28T06:48:22.106Z,85.86
2018-03-28T06:49:21.704Z,85.86
2018-03-28T06:50:20.895Z,85.66
2018-03-28T06:51:20.255Z,85.76
2018-03-28T06:52:21.042Z,85.86
2018-03-28T06:53:20.391Z,85.95
2018-03-28T06:54:20.215Z,85.95
2018-03-28T06:55:21.078Z,85.95
2018-03-28T06:56:19.936Z,85.66
2018-03-28T06:57:21.926Z,85.86
2018-03-28T06:58:21.254Z,86.05
2018-03-28T06:59:20.512Z,85.47
2018-03-28T07:00:21.239Z,85.86
2018-03-28T07:01:21.898Z,85.95
2018-03-28T07:02:23.802Z,86.05
2018-03-28T07:03:23.552Z,86.05
2018-03-28T07:04:22.063Z,87.09
2018-03-28T07:05:21.534Z,87.09
2018-03-28T07:06:21.713Z,87.28
2018-03-28T07:07:21.896Z,87.47
2018-03-28T07:08:23.939Z,87.19
2018-03-28T07:09:23.400Z,86.90
2018-03-28T07:10:24.123Z,87.66
2018-03-28T07:11:27.317Z,86.80
2018-03-28T07:12:23.770Z,87.28
2018-03-28T07:13:23.803Z,86.99
2018-03-28T07:14:25.021Z,87.38
2018-03-28T07:15:25.440Z,87.28
2018-03-28T07:16:25.787Z,87.28
2018-03-28T07:17:26.968Z,87.28
2018-03-28T07:18:24.565Z,87.38
2018-03-28T07:19:25.423Z,86.99
2018-03-28T07:20:25.045Z,86.80
2018-03-28T07:21:25.353Z,86.71
2018-03-28T07:22:26.372Z,86.61
2018-03-28T07:23:26.590Z,86.71
2018-03-28T07:24:25.848Z,87.09
2018-03-28T07:25:26.274Z,86.57
2018-03-28T07:26:26.833Z,86.66
2018-03-28T07:27:26.070Z,86.47
2018-03-28T07:28:27.920Z,86.57
2018-03-28T07:29:26.832Z,86.57
2018-03-28T07:30:28.131Z,86.38
2018-03-28T07:31:25.757Z,86.66
2018-03-28T07:32:28.005Z,86.18
2018-03-28T07:33:27.794Z,86.47
2018-03-28T07:34:29.685Z,86.18
2018-03-28T07:35:26.435Z,86.94
2018-03-28T07:36:26.608Z,86.66
2018-03-28T07:37:26.787Z,86.57
2018-03-28T07:38:26.976Z,86.47
2018-03-28T07:39:27.156Z,86.76
2018-03-28T07:40:27.349Z,86.18
2018-03-28T07:41:27.557Z,86.38
2018-03-28T07:42:27.750Z,86.18
2018-03-28T07:43:28.323Z,86.09
2018-03-28T07:44:28.139Z,85.90
2018-03-28T07:45:28.562Z,86.09
2018-03-28T07:46:28.661Z,85.90
2018-03-28T07:47:28.970Z,85.52
2018-03-28T07:48:28.729Z,86.28
2018-03-28T07:49:29.772Z,86.28
2018-03-28T07:50:30.203Z,86.09
2018-03-28T07:51:30.745Z,86.09
2018-03-28T07:52:30.076Z,86.47
2018-03-28T07:53:31.111Z,86.18
2018-03-28T07:54:30.514Z,86.18
2018-03-28T07:55:31.201Z,86.18
2018-03-28T07:56:31.461Z,86.09
2018-03-28T07:57:31.068Z,86.18
2018-03-28T07:58:32.551Z,85.99
2018-03-28T07:59:32.106Z,86.28
2018-03-28T08:00:31.753Z,86.76
2018-03-28T08:01:31.890Z,86.85
2018-03-28T08:02:33.273Z,86.76
2018-03-28T08:03:32.930Z,86.76
2018-03-28T08:04:33.563Z,86.47
2018-03-28T08:05:32.722Z,86.42
2018-03-28T08:06:32.718Z,86.13
2018-03-28T08:07:35.263Z,86.94
2018-03-28T08:08:33.012Z,86.51
2018-03-28T08:09:32.868Z,86.22
2018-03-28T08:10:32.432Z,86.22
2018-03-28T08:11:34.819Z,86.13
2018-03-28T08:12:32.673Z,86.32
2018-03-28T08:13:32.850Z,86.13
2018-03-28T08:14:33.046Z,85.94
2018-03-28T08:15:33.219Z,85.18
2018-03-28T08:16:36.402Z,85.37
2018-03-28T08:17:33.553Z,85.28
2018-03-28T08:18:33.736Z,85.66
2018-03-28T08:19:34.022Z,85.37
2018-03-28T08:20:34.214Z,85.37
2018-03-28T08:21:34.309Z,86.04
2018-03-28T08:22:34.492Z,86.32
2018-03-28T08:23:34.678Z,85.37
2018-03-28T08:24:34.865Z,85.08
2018-03-28T08:25:35.080Z,85.32
2018-03-28T08:26:35.246Z,85.41
2018-03-28T08:27:35.488Z,85.41
2018-03-28T08:28:35.545Z,84.75
2018-03-28T08:29:35.731Z,84.84
2018-03-28T08:30:35.924Z,84.84
2018-03-28T08:31:39.876Z,85.47
2018-03-28T08:32:36.263Z,85.41
2018-03-28T08:33:36.433Z,86.04
2018-03-28T08:34:36.619Z,86.22
2018-03-28T08:35:36.800Z,85.94
2018-03-28T08:36:37.023Z,86.27
2018-03-28T08:37:37.196Z,86.36
2018-03-28T08:38:38.683Z,85.99
2018-03-28T08:39:37.958Z,85.60
2018-03-28T08:40:38.705Z,85.60
2018-03-28T08:41:38.388Z,85.80
2018-03-28T08:42:38.016Z,85.70
2018-03-28T08:43:38.209Z,85.03
2018-03-28T08:44:38.407Z,84.65
2018-03-28T08:45:38.579Z,84.08
2018-03-28T08:46:38.789Z,84.65
2018-03-28T08:47:38.960Z,85.13
2018-03-28T08:48:39.139Z,85.70
2018-03-28T08:49:39.333Z,85.70
2018-03-28T08:50:39.522Z,85.99
2018-03-28T08:51:39.703Z,86.22
2018-03-28T08:52:43.503Z,87.37
2018-03-28T08:53:40.006Z,87.41
2018-03-28T08:54:40.182Z,86.51
2018-03-28T08:55:40.374Z,86.36
2018-03-28T08:56:42.553Z,86.18
2018-03-28T08:57:41.867Z,86.46
2018-03-28T08:58:43.573Z,85.13
2018-03-28T08:59:41.578Z,85.80
2018-03-28T09:00:41.295Z,85.89
2018-03-28T09:01:41.929Z,85.32
2018-03-28T09:02:41.601Z,85.80
2018-03-28T09:03:41.778Z,85.89
2018-03-28T09:04:41.959Z,86.27
2018-03-28T09:05:42.142Z,85.99
2018-03-28T09:06:42.441Z,86.27
2018-03-28T09:07:42.499Z,85.99
2018-03-28T09:08:42.676Z,85.99
2018-03-28T09:09:42.859Z,85.60
2018-03-28T09:10:43.034Z,85.13
2018-03-28T09:11:43.219Z,85.32
2018-03-28T09:12:43.396Z,85.89
2018-03-28T09:13:43.592Z,85.80
2018-03-28T09:14:43.780Z,85.13
2018-03-28T09:15:44.326Z,85.41
2018-03-28T09:16:44.175Z,86.08
2018-03-28T09:17:44.330Z,86.08
2018-03-28T09:18:44.503Z,86.55
2018-03-28T09:19:44.692Z,86.18
2018-03-28T09:20:44.872Z,86.27
2018-03-28T09:21:45.056Z,86.08
2018-03-28T09:22:45.228Z,86.03
2018-03-28T09:23:45.425Z,86.27
2018-03-28T09:24:45.611Z,86.12
2018-03-28T09:25:45.793Z,86.18
2018-03-28T09:26:45.981Z,86.46
2018-03-28T09:27:46.157Z,86.03
2018-03-28T09:28:46.336Z,86.41
2018-03-28T09:29:49.047Z,86.22
2018-03-28T09:30:48.581Z,86.03
2018-03-28T09:31:48.415Z,86.12
2018-03-28T09:32:47.106Z,85.55
2018-03-28T09:33:47.286Z,85.55
2018-03-28T09:34:49.936Z,85.46
2018-03-28T09:35:51.798Z,86.41
2018-03-28T09:36:48.799Z,85.55
2018-03-28T09:37:48.021Z,85.60
2018-03-28T09:38:48.211Z,85.41
2018-03-28T09:39:48.393Z,84.64
2018-03-28T09:40:48.580Z,84.26
2018-03-28T09:41:50.429Z,84.07
2018-03-28T09:42:49.758Z,83.50
2018-03-28T09:43:50.122Z,83.21
2018-03-28T09:44:50.103Z,83.69
2018-03-28T09:45:49.550Z,83.97
2018-03-28T09:46:49.732Z,83.88
2018-03-28T09:47:49.919Z,84.16
2018-03-28T09:48:50.287Z,84.40
2018-03-28T09:49:50.281Z,83.25
2018-03-28T09:50:50.553Z,83.44
2018-03-28T09:51:50.691Z,83.35
2018-03-28T09:52:50.925Z,83.44
2018-03-28T09:53:51.107Z,83.44
2018-03-28T09:54:51.315Z,82.87
2018-03-28T09:55:51.469Z,83.06
2018-03-28T09:56:52.230Z,82.30
2018-03-28T09:57:53.120Z,82.06
2018-03-28T09:58:52.251Z,81.44
2018-03-28T09:59:52.888Z,81.58
2018-03-28T10:00:53.677Z,81.86
2018-03-28T10:01:53.460Z,81.67
2018-03-28T10:02:55.048Z,81.58
2018-03-28T10:03:53.702Z,82.11
2018-03-28T10:04:54.281Z,82.30
2018-03-28T10:05:54.425Z,82.49
2018-03-28T10:06:53.099Z,82.40
2018-03-28T10:07:53.370Z,82.11
2018-03-28T10:08:56.455Z,82.01
2018-03-28T10:09:55.769Z,81.63
2018-03-28T10:10:55.125Z,82.01
2018-03-28T10:11:55.223Z,82.30
2018-03-28T10:12:55.151Z,82.40
2018-03-28T10:13:56.031Z,82.30
2018-03-28T10:14:57.427Z,82.40
2018-03-28T10:15:56.850Z,82.30
2018-03-28T10:16:57.582Z,82.11
2018-03-28T10:17:56.732Z,81.63
2018-03-28T10:18:57.862Z,81.77
2018-03-28T10:19:56.874Z,82.15
2018-03-28T10:20:56.962Z,81.92
2018-03-28T10:21:57.281Z,82.11
2018-03-28T10:22:56.173Z,82.34
2018-03-28T10:23:58.042Z,81.58
2018-03-28T10:24:58.292Z,82.87
2018-03-28T10:25:58.255Z,82.87
2018-03-28T10:26:58.190Z,83.44
2018-03-28T10:27:59.422Z,83.06
2018-03-28T10:28:58.316Z,82.30
2018-03-28T10:29:58.085Z,82.15
2018-03-28T10:30:58.258Z,83.06
2018-03-28T10:31:58.935Z,82.68
2018-03-28T10:32:57.945Z,82.49
2018-03-28T10:34:00.951Z,82.34
2018-03-28T10:35:00.065Z,82.53
2018-03-28T10:35:59.904Z,81.92
2018-03-28T10:36:58.938Z,82.87
2018-03-28T10:38:01.004Z,83.44
2018-03-28T10:39:01.023Z,84.11
2018-03-28T10:40:00.100Z,83.25
2018-03-28T10:40:58.875Z,82.72
2018-03-28T10:41:59.074Z,81.86
2018-03-28T10:43:01.539Z,81.29
2018-03-28T10:43:59.426Z,81.67
2018-03-28T10:44:59.602Z,81.48
2018-03-28T10:45:59.796Z,81.04
2018-03-28T10:46:59.971Z,80.33
2018-03-28T10:48:00.165Z,80.33
2018-03-28T10:49:00.351Z,81.38
2018-03-28T10:50:00.530Z,81.29
2018-03-28T10:51:00.716Z,81.58
2018-03-28T10:52:00.899Z,81.29
2018-03-28T10:53:01.080Z,79.77
2018-03-28T10:54:02.026Z,79.86
2018-03-28T10:55:01.447Z,80.33
2018-03-28T10:56:01.632Z,81.01
2018-03-28T10:57:01.811Z,79.96
2018-03-28T10:58:01.992Z,80.33
2018-03-28T10:59:02.271Z,79.96
2018-03-28T11:00:02.345Z,79.96
2018-03-28T11:01:02.553Z,79.96
2018-03-28T11:02:02.722Z,80.05
2018-03-28T11:03:02.923Z,80.05
2018-03-28T11:04:03.101Z,79.10
2018-03-28T11:05:03.283Z,78.62
2018-03-28T11:06:03.603Z,79.10
2018-03-28T11:07:06.882Z,79.00
2018-03-28T11:08:05.768Z,79.38
2018-03-28T11:09:05.117Z,79.48
2018-03-28T11:10:04.271Z,79.19
2018-03-28T11:11:04.356Z,79.44
2018-03-28T11:12:04.523Z,79.57
2018-03-28T11:13:06.716Z,79.72
2018-03-28T11:14:05.788Z,79.72
2018-03-28T11:15:05.622Z,79.63
2018-03-28T11:16:05.981Z,78.96
2018-03-28T11:17:05.821Z,79.72
2018-03-28T11:18:05.970Z,80.30
2018-03-28T11:19:06.500Z,80.64
2018-03-28T11:20:06.458Z,81.21
2018-03-28T11:21:06.423Z,81.59
2018-03-28T11:22:06.996Z,81.88
2018-03-28T11:23:06.587Z,82.01
2018-03-28T11:24:07.392Z,80.83
2018-03-28T11:25:07.177Z,81.12
2018-03-28T11:26:09.177Z,81.49
2018-03-28T11:27:07.568Z,82.45
2018-03-28T11:28:08.010Z,83.02
2018-03-28T11:29:08.219Z,83.31
2018-03-28T11:30:08.706Z,83.40
2018-03-28T11:31:08.690Z,82.92
2018-03-28T11:32:08.723Z,82.26
2018-03-28T11:33:09.822Z,81.63
2018-03-28T11:34:10.544Z,80.77
2018-03-28T11:35:08.687Z,80.11
2018-03-28T11:36:09.328Z,80.49
2018-03-28T11:37:10.184Z,80.96
2018-03-28T11:38:09.682Z,81.12
2018-03-28T11:39:10.335Z,81.30
2018-03-28T11:40:11.125Z,82.92
2018-03-28T11:41:12.373Z,82.98
2018-03-28T11:42:10.902Z,83.45
2018-03-28T11:43:13.690Z,83.45
2018-03-28T11:44:12.285Z,82.98
2018-03-28T11:45:10.968Z,83.45
2018-03-28T11:46:13.777Z,83.84
2018-03-28T11:47:12.141Z,83.45
2018-03-28T11:48:15.011Z,82.89
2018-03-28T11:49:12.503Z,83.45
2018-03-28T11:50:13.281Z,83.45
2018-03-28T11:51:12.295Z,83.02
2018-03-28T11:52:12.976Z,82.79
2018-03-28T11:53:12.083Z,82.79
2018-03-28T11:54:13.160Z,82.98
2018-03-28T11:55:12.557Z,82.79
2018-03-28T11:56:12.175Z,83.36
2018-03-28T11:57:12.503Z,83.93
2018-03-28T11:58:11.843Z,84.31
2018-03-28T11:59:12.858Z,84.88
2018-03-28T12:00:13.310Z,85.17
2018-03-28T12:01:12.815Z,85.12
2018-03-28T12:02:12.462Z,84.55
2018-03-28T12:03:13.388Z,84.45
2018-03-28T12:04:12.820Z,83.97
2018-03-28T12:05:13.080Z,84.26
2018-03-28T12:06:13.305Z,83.78
2018-03-28T12:07:14.867Z,84.45
2018-03-28T12:08:14.390Z,84.12
2018-03-28T12:09:14.069Z,84.55
2018-03-28T12:10:14.198Z,84.92
2018-03-28T12:11:13.998Z,84.83
2018-03-28T12:12:16.520Z,84.45
2018-03-28T12:13:15.775Z,84.16
2018-03-28T12:14:15.310Z,83.97
2018-03-28T12:15:15.971Z,84.26
2018-03-28T12:16:16.206Z,84.07
2018-03-28T12:17:17.279Z,84.45
2018-03-28T12:18:17.296Z,84.88
2018-03-28T12:19:15.998Z,84.12
2018-03-28T12:20:17.289Z,84.41
2018-03-28T12:21:19.485Z,85.64
2018-03-28T12:22:16.805Z,86.41
2018-03-28T12:23:16.600Z,86.22
2018-03-28T12:24:17.113Z,86.51
2018-03-28T12:25:18.145Z,87.36
2018-03-28T12:26:19.273Z,86.98
2018-03-28T12:27:17.252Z,87.07
2018-03-28T12:28:18.925Z,84.79
2018-03-28T12:29:17.765Z,84.92
2018-03-28T12:30:20.550Z,84.22
2018-03-28T12:31:17.990Z,84.69
2018-03-28T12:32:18.613Z,84.69
2018-03-28T12:33:18.313Z,84.64
2018-03-28T12:34:18.746Z,84.60
2018-03-28T12:35:19.162Z,84.50
2018-03-28T12:36:19.179Z,83.93
2018-03-28T12:37:20.044Z,83.84
2018-03-28T12:38:21.027Z,82.89
2018-03-28T12:39:19.528Z,83.21
2018-03-28T12:40:19.324Z,83.50
2018-03-28T12:41:19.518Z,82.92
2018-03-28T12:42:19.820Z,83.31
2018-03-28T12:43:19.852Z,83.74
2018-03-28T12:44:20.038Z,84.41
2018-03-28T12:45:20.013Z,84.22
2018-03-28T12:46:20.963Z,83.45
2018-03-28T12:47:22.447Z,84.31
2018-03-28T12:48:23.307Z,84.22
2018-03-28T12:49:20.557Z,84.79
2018-03-28T12:50:20.896Z,84.22
2018-03-28T12:51:21.147Z,84.50
2018-03-28T12:52:21.228Z,84.41
2018-03-28T12:53:21.290Z,84.50
2018-03-28T12:54:21.485Z,84.69